createdAt,value
2022-10-19T00:00:21.242Z,3.75
2022-10-19T00:02:51.825Z,3.75
2022-10-19T00:05:22.611Z,3.74
2022-10-19T00:07:54.871Z,3.71
2022-10-19T00:10:25.668Z,3.72
2022-10-19T00:12:56.299Z,3.73
2022-10-19T00:15:29.503Z,3.70
2022-10-19T00:18:00.049Z,3.70
2022-10-19T00:20:30.626Z,3.68
2022-10-19T00:23:01.220Z,3.64
2022-10-19T00:25:32.242Z,3.60
2022-10-19T00:28:03.533Z,3.56
2022-10-19T00:30:40.028Z,3.55
2022-10-19T00:33:10.619Z,3.51
2022-10-19T00:35:44.129Z,3.48
2022-10-19T00:38:14.722Z,3.45
2022-10-19T00:40:45.331Z,3.44
2022-10-19T00:43:18.329Z,3.41
2022-10-19T00:45:51.932Z,3.37
2022-10-19T00:48:26.865Z,3.33
2022-10-19T00:51:00.361Z,3.32
2022-10-19T00:53:33.647Z,3.31
2022-10-19T00:56:08.538Z,3.31
2022-10-19T00:58:39.559Z,3.31
2022-10-19T01:01:16.234Z,3.30
2022-10-19T01:03:47.469Z,3.30
2022-10-19T01:06:20.997Z,3.27
2022-10-19T01:08:51.557Z,3.25
2022-10-19T01:11:34.530Z,3.23
2022-10-19T01:14:21.271Z,3.20
2022-10-19T01:17:05.749Z,3.14
2022-10-19T01:20:03.482Z,3.11
2022-10-19T01:22:49.043Z,3.06
2022-10-19T01:25:26.033Z,3.03
2022-10-19T01:28:12.797Z,2.99
2022-10-19T01:30:56.105Z,2.97
2022-10-19T01:33:47.283Z,2.97
2022-10-19T01:36:26.503Z,2.93
2022-10-19T01:39:05.444Z,2.92
2022-10-19T01:41:46.558Z,2.91
2022-10-19T01:44:22.102Z,2.89
2022-10-19T01:46:58.024Z,2.90
2022-10-19T01:49:34.318Z,2.86
2022-10-19T01:52:08.303Z,2.86
2022-10-19T01:54:44.659Z,2.82
2022-10-19T01:57:20.253Z,2.83
2022-10-19T01:59:51.640Z,2.81
2022-10-19T02:02:27.178Z,2.79
2022-10-19T02:05:00.395Z,2.78
2022-10-19T02:07:31.759Z,2.76
2022-10-19T02:10:02.457Z,2.74
2022-10-19T02:12:36.090Z,2.73
2022-10-19T02:15:14.788Z,2.72
2022-10-19T02:17:52.191Z,2.71
2022-10-19T02:20:24.216Z,2.70
2022-10-19T02:22:54.796Z,2.70
2022-10-19T02:25:26.242Z,2.70
2022-10-19T02:27:56.899Z,2.71
2022-10-19T02:30:27.721Z,2.68
2022-10-19T02:33:00.871Z,2.67
2022-10-19T02:35:31.625Z,2.66
2022-10-19T02:38:05.289Z,2.66
2022-10-19T02:40:39.756Z,2.66
2022-10-19T02:43:19.336Z,2.66
2022-10-19T02:45:57.954Z,2.65
2022-10-19T02:48:35.099Z,2.65
2022-10-19T02:51:05.777Z,2.65
2022-10-19T02:53:36.315Z,2.64
2022-10-19T02:56:07.227Z,2.65
2022-10-19T02:58:37.773Z,2.64
2022-10-19T03:01:08.570Z,2.63
2022-10-19T03:03:41.807Z,2.64
2022-10-19T03:06:12.597Z,2.64
2022-10-19T03:08:43.188Z,2.63
2022-10-19T03:11:13.737Z,2.63
2022-10-19T03:13:45.285Z,2.59
2022-10-19T03:16:16.990Z,2.58
2022-10-19T03:18:51.144Z,2.53
2022-10-19T03:21:22.066Z,2.53
2022-10-19T03:23:52.623Z,2.51
2022-10-19T03:26:23.364Z,2.50
2022-10-19T03:28:53.973Z,2.46
2022-10-19T03:31:24.723Z,2.46
2022-10-19T03:33:57.895Z,2.45
2022-10-19T03:36:30.225Z,2.44
2022-10-19T03:39:02.679Z,2.43
2022-10-19T03:41:35.708Z,2.41
2022-10-19T03:44:06.914Z,2.38
2022-10-19T03:46:37.961Z,2.40
2022-10-19T03:49:12.057Z,2.41
2022-10-19T03:51:42.567Z,2.42
2022-10-19T03:54:16.796Z,2.41
2022-10-19T03:56:47.566Z,2.38
2022-10-19T03:59:18.533Z,2.34
2022-10-19T04:01:49.673Z,2.31
2022-10-19T04:04:23.486Z,2.29
2022-10-19T04:06:54.312Z,2.24
2022-10-19T04:09:26.252Z,2.20
2022-10-19T04:11:57.149Z,2.16
2022-10-19T04:14:33.206Z,2.13
2022-10-19T04:17:10.473Z,2.09
2022-10-19T04:19:43.907Z,2.06
2022-10-19T04:22:15.024Z,2.06
2022-10-19T04:24:45.731Z,2.05
2022-10-19T04:27:16.449Z,2.05
2022-10-19T04:29:47.213Z,2.06
2022-10-19T04:32:17.854Z,2.07
2022-10-19T04:34:51.000Z,2.09
2022-10-19T04:37:21.507Z,2.11
2022-10-19T04:39:52.005Z,2.12
2022-10-19T04:42:22.526Z,2.13
2022-10-19T04:44:53.010Z,2.14
2022-10-19T04:47:23.514Z,2.14
2022-10-19T04:49:56.635Z,2.15
2022-10-19T04:52:27.263Z,2.16
2022-10-19T04:54:57.794Z,2.18
2022-10-19T04:57:28.263Z,2.19
2022-10-19T04:59:58.778Z,2.20
2022-10-19T05:02:29.269Z,2.19
2022-10-19T05:05:02.475Z,2.19
2022-10-19T05:07:33.758Z,2.18
2022-10-19T05:10:04.819Z,2.16
2022-10-19T05:12:35.613Z,2.15
2022-10-19T05:15:06.645Z,2.15
2022-10-19T05:17:37.281Z,2.16
2022-10-19T05:20:12.191Z,2.17
2022-10-19T05:22:43.058Z,2.20
2022-10-19T05:25:13.587Z,2.25
2022-10-19T05:27:44.092Z,2.30
2022-10-19T05:30:15.088Z,2.40
2022-10-19T05:32:45.602Z,2.52
2022-10-19T05:35:22.361Z,2.66
2022-10-19T05:37:57.386Z,2.83
2022-10-19T05:40:27.904Z,3.01
2022-10-19T05:42:58.419Z,3.19
2022-10-19T05:45:28.928Z,3.39
2022-10-19T05:47:59.486Z,3.58
2022-10-19T05:50:32.625Z,3.81
2022-10-19T05:53:03.130Z,4.04
2022-10-19T05:55:38.550Z,4.29
2022-10-19T05:58:09.068Z,4.54
2022-10-19T06:00:39.651Z,4.84
2022-10-19T06:03:10.154Z,5.13
2022-10-19T06:05:43.551Z,5.43
2022-10-19T06:08:14.149Z,5.72
2022-10-19T06:10:44.735Z,6.02
2022-10-19T06:13:15.886Z,6.34
2022-10-19T06:15:46.404Z,6.66
2022-10-19T06:18:16.989Z,7.00
2022-10-19T06:20:50.171Z,7.34
2022-10-19T06:23:20.967Z,7.70
2022-10-19T06:25:51.437Z,8.09
2022-10-19T06:28:21.971Z,8.47
2022-10-19T06:30:52.559Z,8.86
2022-10-19T06:33:23.086Z,9.24
2022-10-19T06:35:56.582Z,9.64
2022-10-19T06:38:27.155Z,10.02
2022-10-19T06:41:01.856Z,10.44
2022-10-19T06:43:32.384Z,10.85
2022-10-19T06:46:06.555Z,11.21
2022-10-19T06:48:37.223Z,11.61
2022-10-19T06:51:12.108Z,12.02
2022-10-19T06:53:42.632Z,12.47
2022-10-19T06:56:13.777Z,12.91
2022-10-19T06:58:44.388Z,13.35
2022-10-19T07:01:15.031Z,13.79
2022-10-19T07:03:46.034Z,14.23
2022-10-19T07:06:19.178Z,14.70
2022-10-19T07:08:49.733Z,15.14
2022-10-19T07:11:22.857Z,15.58
2022-10-19T07:13:54.922Z,16.02
2022-10-19T07:16:25.544Z,16.46
2022-10-19T07:18:56.926Z,16.89
2022-10-19T07:21:30.164Z,17.26
2022-10-19T07:24:01.059Z,17.58
2022-10-19T07:26:33.419Z,17.79
2022-10-19T07:29:04.615Z,17.86
2022-10-19T07:31:36.094Z,17.86
2022-10-19T07:34:08.512Z,17.84
2022-10-19T07:36:45.190Z,17.78
2022-10-19T07:39:17.159Z,17.68
2022-10-19T07:41:48.108Z,17.60
2022-10-19T07:44:19.280Z,17.50
2022-10-19T07:46:50.534Z,17.39
2022-10-19T07:49:21.053Z,17.27
2022-10-19T07:51:56.314Z,17.17
2022-10-19T07:54:27.686Z,17.10
2022-10-19T07:56:58.265Z,17.03
2022-10-19T07:59:28.880Z,16.94
2022-10-19T08:02:02.603Z,16.85
2022-10-19T08:07:26.465Z,16.71
2022-10-19T08:09:57.092Z,16.64
2022-10-19T08:12:27.890Z,16.56
2022-10-19T08:14:58.532Z,16.50
2022-10-19T08:17:29.104Z,16.41
2022-10-19T08:19:59.621Z,16.30
2022-10-19T08:22:33.094Z,16.21
2022-10-19T08:25:03.937Z,16.14
2022-10-19T08:27:37.571Z,16.05
2022-10-19T08:30:08.871Z,15.96
2022-10-19T08:32:39.436Z,15.91
2022-10-19T08:35:11.048Z,15.87
2022-10-19T08:37:45.435Z,15.85
2022-10-19T08:40:23.931Z,16.10
2022-10-19T08:42:59.379Z,16.76
2022-10-19T08:45:51.130Z,17.15
2022-10-19T08:48:33.180Z,17.23
2022-10-19T08:51:04.461Z,17.20
2022-10-19T08:53:43.054Z,17.10
2022-10-19T08:56:50.040Z,16.96
2022-10-19T08:59:24.718Z,16.83
2022-10-19T09:01:58.594Z,16.74
2022-10-19T09:04:35.865Z,16.65
2022-10-19T09:07:23.414Z,16.58
2022-10-19T09:10:00.192Z,16.51
2022-10-19T09:12:46.484Z,16.47
2022-10-19T09:15:21.373Z,16.42
2022-10-19T09:17:51.901Z,16.38
2022-10-19T09:20:25.696Z,16.34
2022-10-19T09:23:06.807Z,16.30
2022-10-19T09:25:44.149Z,16.27
2022-10-19T09:28:36.477Z,16.28
2022-10-19T09:31:13.999Z,16.28
2022-10-19T09:33:47.255Z,16.30
2022-10-19T09:36:22.916Z,16.31
2022-10-19T09:38:58.237Z,16.36
2022-10-19T09:41:31.909Z,16.37
2022-10-19T09:44:03.123Z,16.40
2022-10-19T09:46:42.405Z,16.43
2022-10-19T09:49:13.078Z,16.46
2022-10-19T09:51:51.911Z,16.51
2022-10-19T09:54:38.166Z,16.55
2022-10-19T09:57:24.396Z,16.58
2022-10-19T09:59:55.541Z,16.60
2022-10-19T10:02:33.229Z,16.64
2022-10-19T10:05:09.400Z,16.69
2022-10-19T10:07:41.877Z,16.70
2022-10-19T10:10:14.759Z,16.74
2022-10-19T10:12:49.077Z,16.80
2022-10-19T10:15:24.518Z,16.88
2022-10-19T10:17:56.156Z,16.94
2022-10-19T10:20:32.458Z,17.02
2022-10-19T10:23:05.449Z,17.09
2022-10-19T10:25:38.149Z,17.18
2022-10-19T10:28:22.762Z,17.28
2022-10-19T10:30:58.549Z,17.40
2022-10-19T10:33:44.042Z,17.51
2022-10-19T10:36:16.295Z,17.66
2022-10-19T10:38:50.510Z,17.82
2022-10-19T10:41:25.015Z,17.97
2022-10-19T10:44:04.585Z,18.12
2022-10-19T10:46:38.449Z,18.29
2022-10-19T10:49:11.499Z,18.50
2022-10-19T10:51:50.574Z,18.67
2022-10-19T10:54:25.575Z,18.85
2022-10-19T10:57:09.504Z,19.05
2022-10-19T10:59:51.300Z,19.25
2022-10-19T11:02:32.898Z,19.43
2022-10-19T11:05:07.766Z,19.60
2022-10-19T11:07:39.526Z,19.81
2022-10-19T11:10:19.803Z,19.98
2022-10-19T11:12:57.086Z,20.16
2022-10-19T11:15:37.780Z,20.28
2022-10-19T11:18:18.843Z,20.40
2022-10-19T11:20:58.344Z,20.51
2022-10-19T11:23:40.817Z,20.67
2022-10-19T11:26:22.960Z,20.76
2022-10-19T11:29:05.786Z,20.83
2022-10-19T11:31:47.865Z,20.92
2022-10-19T11:34:37.334Z,21.03
2022-10-19T11:37:22.452Z,21.15
2022-10-19T11:40:04.109Z,21.28
2022-10-19T11:42:48.352Z,21.42
2022-10-19T11:45:35.381Z,21.53
2022-10-19T11:48:23.925Z,21.63
2022-10-19T11:51:16.925Z,21.73
2022-10-19T11:53:58.825Z,21.85
2022-10-19T11:56:58.181Z,21.92
2022-10-19T11:59:38.629Z,21.97
2022-10-19T12:02:31.177Z,22.05
2022-10-19T12:05:08.930Z,22.12
2022-10-19T12:07:56.647Z,22.16
2022-10-19T12:10:36.157Z,22.16
2022-10-19T12:13:09.153Z,22.09
2022-10-19T12:15:43.110Z,21.92
2022-10-19T12:18:19.409Z,21.72
2022-10-19T12:20:56.656Z,21.48
2022-10-19T12:23:33.338Z,21.23
2022-10-19T12:26:06.741Z,21.03
2022-10-19T12:28:39.923Z,20.82
2022-10-19T12:31:13.684Z,20.62
2022-10-19T12:33:52.688Z,20.42
2022-10-19T12:36:40.099Z,20.23
2022-10-19T12:39:17.249Z,20.08
2022-10-19T12:41:53.441Z,19.93
2022-10-19T12:44:38.166Z,19.82
2022-10-19T12:47:18.766Z,19.71
2022-10-19T12:49:51.905Z,19.63
2022-10-19T12:52:41.629Z,19.53
2022-10-19T12:55:34.893Z,19.44
2022-10-19T12:58:22.820Z,19.39
2022-10-19T13:01:02.692Z,19.31
2022-10-19T13:03:36.775Z,19.26
2022-10-19T13:06:14.476Z,19.20
2022-10-19T13:08:51.768Z,19.15
2022-10-19T13:11:23.561Z,19.12
2022-10-19T13:14:00.599Z,19.07
2022-10-19T13:17:09.743Z,19.04
2022-10-19T13:19:40.381Z,19.00
2022-10-19T13:22:30.431Z,18.95
2022-10-19T13:25:28.152Z,18.92
2022-10-19T13:28:03.247Z,18.89
2022-10-19T13:31:06.085Z,18.88
2022-10-19T13:33:49.661Z,18.83
2022-10-19T13:36:21.321Z,18.80
2022-10-19T13:39:08.777Z,18.78
2022-10-19T13:41:57.322Z,18.76
2022-10-19T13:44:31.212Z,18.74
2022-10-19T13:47:20.658Z,18.69
2022-10-19T13:50:06.028Z,18.65
2022-10-19T13:52:59.581Z,18.60
2022-10-19T13:55:53.553Z,18.56
2022-10-19T13:58:42.405Z,18.53
2022-10-19T14:01:25.905Z,18.49
2022-10-19T14:04:09.832Z,18.46
2022-10-19T14:06:46.844Z,18.25
2022-10-19T14:09:43.668Z,17.48
2022-10-19T14:12:22.764Z,16.90
2022-10-19T14:14:56.396Z,16.76
2022-10-19T14:17:30.358Z,16.51
2022-10-19T14:20:02.254Z,16.51
2022-10-19T14:22:36.366Z,16.51
2022-10-19T14:25:10.351Z,16.56
2022-10-19T14:27:41.863Z,16.62
2022-10-19T14:30:25.628Z,16.70
2022-10-19T14:33:01.002Z,16.76
2022-10-19T14:35:36.586Z,16.82
2022-10-19T14:38:09.506Z,16.87
2022-10-19T14:40:43.236Z,16.91
2022-10-19T14:43:23.842Z,16.92
2022-10-19T14:46:13.567Z,16.93
2022-10-19T14:48:45.980Z,16.92
2022-10-19T14:51:33.963Z,16.91
2022-10-19T14:54:08.368Z,16.90
2022-10-19T14:56:46.190Z,16.88
2022-10-19T14:59:27.926Z,16.85
2022-10-19T15:02:04.188Z,16.83
2022-10-19T15:04:37.734Z,16.81
2022-10-19T15:07:19.911Z,16.76
2022-10-19T15:09:56.593Z,16.70
2022-10-19T15:12:33.370Z,16.65
2022-10-19T15:15:04.283Z,16.58
2022-10-19T15:17:39.103Z,16.53
2022-10-19T15:20:26.366Z,16.47
2022-10-19T15:22:57.372Z,16.42
2022-10-19T15:25:37.228Z,16.32
2022-10-19T15:28:23.510Z,16.27
2022-10-19T15:31:04.999Z,16.20
2022-10-19T15:33:43.386Z,16.13
2022-10-19T15:36:17.596Z,16.03
2022-10-19T15:38:50.073Z,15.97
2022-10-19T15:41:23.942Z,15.88
2022-10-19T15:43:56.942Z,15.80
2022-10-19T15:46:31.887Z,15.66
2022-10-19T15:49:27.632Z,15.61
2022-10-19T15:51:58.127Z,15.53
2022-10-19T15:54:28.757Z,15.45
2022-10-19T15:56:59.567Z,15.36
2022-10-19T15:59:30.203Z,15.27
2022-10-19T16:02:00.817Z,15.19
2022-10-19T16:04:34.249Z,15.10
2022-10-19T16:07:05.328Z,14.99
2022-10-19T16:09:36.187Z,14.90
2022-10-19T16:12:06.933Z,14.81
2022-10-19T16:14:37.784Z,14.72
2022-10-19T16:17:08.496Z,14.62
2022-10-19T16:19:41.846Z,14.54
2022-10-19T16:22:12.819Z,14.47
2022-10-19T16:24:43.965Z,14.36
2022-10-19T16:27:16.602Z,13.70
2022-10-19T16:29:47.608Z,12.87
2022-10-19T16:32:18.267Z,12.48
2022-10-19T16:34:51.589Z,12.25
2022-10-19T16:37:22.223Z,12.02
2022-10-19T16:39:52.793Z,12.00
2022-10-19T16:42:25.667Z,11.80
2022-10-19T16:44:58.853Z,11.74
2022-10-19T16:47:29.530Z,11.64
2022-10-19T16:50:04.586Z,11.53
2022-10-19T16:52:35.736Z,11.51
2022-10-19T16:55:06.612Z,11.32
2022-10-19T16:57:37.337Z,11.17
2022-10-19T17:00:10.381Z,11.14
2022-10-19T17:02:44.346Z,10.93
2022-10-19T17:05:19.766Z,10.82
2022-10-19T17:07:50.318Z,10.75
2022-10-19T17:10:21.915Z,10.58
2022-10-19T17:12:52.544Z,10.49
2022-10-19T17:15:42.019Z,10.50
2022-10-19T17:18:13.394Z,10.28
2022-10-19T17:20:46.540Z,10.30
2022-10-19T17:23:17.098Z,10.27
2022-10-19T17:25:50.905Z,10.07
2022-10-19T17:28:24.131Z,10.07
2022-10-19T17:30:58.030Z,10.05
2022-10-19T17:33:30.286Z,9.86
2022-10-19T17:36:10.400Z,9.88
2022-10-19T17:38:41.483Z,9.72
2022-10-19T17:41:14.600Z,9.24
2022-10-19T17:43:47.080Z,8.66
2022-10-19T17:46:20.069Z,8.29
2022-10-19T17:48:50.751Z,8.10
2022-10-19T17:51:27.295Z,7.96
2022-10-19T17:53:59.683Z,7.89
2022-10-19T17:56:30.909Z,7.82
2022-10-19T17:59:03.243Z,7.76
2022-10-19T18:01:34.639Z,7.84
2022-10-19T18:04:05.138Z,8.04
2022-10-19T18:06:39.932Z,7.89
2022-10-19T18:09:13.812Z,7.69
2022-10-19T18:11:47.398Z,7.54
2022-10-19T18:14:18.224Z,7.62
2022-10-19T18:16:50.531Z,7.78
2022-10-19T18:19:21.344Z,7.75
2022-10-19T18:21:54.551Z,7.50
2022-10-19T18:24:25.457Z,7.43
2022-10-19T18:26:56.298Z,7.57
2022-10-19T18:29:28.750Z,7.51
2022-10-19T18:31:59.326Z,7.26
2022-10-19T18:34:30.252Z,7.12
2022-10-19T18:37:03.406Z,7.22
2022-10-19T18:39:33.973Z,7.41
2022-10-19T18:42:04.912Z,7.48
2022-10-19T18:44:35.494Z,7.48
2022-10-19T18:47:06.308Z,7.43
2022-10-19T18:49:37.269Z,7.36
2022-10-19T18:52:10.453Z,7.28
2022-10-19T18:54:41.195Z,7.18
2022-10-19T18:57:11.844Z,7.08
2022-10-19T18:59:42.482Z,6.98
2022-10-19T19:02:22.366Z,6.88
2022-10-19T19:04:58.986Z,6.82
2022-10-19T19:07:32.232Z,6.78
2022-10-19T19:10:03.007Z,6.76
2022-10-19T19:12:34.425Z,6.71
2022-10-19T19:15:08.319Z,6.66
2022-10-19T19:17:39.234Z,6.63
2022-10-19T19:20:11.061Z,6.55
2022-10-19T19:22:44.269Z,6.51
2022-10-19T19:25:15.077Z,6.45
2022-10-19T19:27:45.812Z,6.35
2022-10-19T19:30:16.701Z,6.31
2022-10-19T19:32:47.400Z,6.28
2022-10-19T19:35:18.694Z,6.45
2022-10-19T19:37:51.969Z,6.58
2022-10-19T19:40:22.530Z,6.76
2022-10-19T19:42:53.100Z,6.93
2022-10-19T19:45:23.652Z,7.09
2022-10-19T19:47:57.189Z,7.23
2022-10-19T19:50:27.782Z,7.35
2022-10-19T19:53:02.152Z,7.45
2022-10-19T19:55:38.859Z,7.52
2022-10-19T19:58:09.917Z,7.53
2022-10-19T20:00:42.555Z,7.52
2022-10-19T20:03:13.884Z,7.43
2022-10-19T20:05:44.453Z,7.19
2022-10-19T20:08:17.627Z,6.92
2022-10-19T20:10:48.156Z,6.94
2022-10-19T20:13:18.722Z,6.83
2022-10-19T20:15:49.270Z,6.59
2022-10-19T20:18:19.831Z,6.36
2022-10-19T20:20:50.326Z,6.41
2022-10-19T20:23:23.417Z,6.35
2022-10-19T20:25:53.941Z,6.23
2022-10-19T20:28:24.490Z,6.04
2022-10-19T20:31:02.980Z,6.09
2022-10-19T20:33:34.741Z,6.14
2022-10-19T20:36:07.105Z,6.06
2022-10-19T20:38:42.072Z,5.90
2022-10-19T20:41:13.169Z,5.78
2022-10-19T20:43:43.655Z,5.63
2022-10-19T20:46:16.176Z,5.49
2022-10-19T20:48:47.237Z,5.37
2022-10-19T20:51:20.056Z,5.34
2022-10-19T20:53:54.344Z,5.50
2022-10-19T20:56:27.725Z,5.56
2022-10-19T20:58:59.310Z,5.60
2022-10-19T21:01:32.060Z,5.69
2022-10-19T21:04:05.223Z,5.67
2022-10-19T21:06:38.269Z,5.51
2022-10-19T21:09:15.872Z,5.44
2022-10-19T21:11:50.407Z,5.54
2022-10-19T21:14:27.140Z,5.56
2022-10-19T21:17:01.455Z,5.51
2022-10-19T21:19:35.445Z,5.60
2022-10-19T21:22:06.536Z,5.71
2022-10-19T21:24:40.098Z,5.72
2022-10-19T21:27:12.459Z,5.62
2022-10-19T21:29:43.171Z,5.60
2022-10-19T21:32:13.709Z,5.70
2022-10-19T21:34:44.327Z,5.68
2022-10-19T21:37:15.078Z,5.56
2022-10-19T21:39:48.228Z,5.60
2022-10-19T21:42:18.748Z,5.63
2022-10-19T21:44:51.387Z,5.63
2022-10-19T21:47:24.520Z,5.72
2022-10-19T21:49:55.188Z,5.75
2022-10-19T21:52:25.801Z,5.63
2022-10-19T21:54:59.588Z,5.57
2022-10-19T21:57:30.296Z,5.62
2022-10-19T22:00:00.846Z,5.60
2022-10-19T22:02:31.437Z,5.51
2022-10-19T22:05:02.000Z,5.35
2022-10-19T22:07:33.356Z,5.39
2022-10-19T22:10:07.339Z,5.47
2022-10-19T22:12:38.397Z,5.46
2022-10-19T22:15:10.232Z,5.37
2022-10-19T22:17:40.808Z,5.45
2022-10-19T22:20:12.550Z,5.56
2022-10-19T22:22:43.055Z,5.53
2022-10-19T22:25:16.251Z,5.56
2022-10-19T22:27:46.731Z,5.66
2022-10-19T22:30:17.356Z,5.66
2022-10-19T22:32:47.920Z,5.56
2022-10-19T22:35:18.653Z,5.45
2022-10-19T22:37:49.179Z,5.56
2022-10-19T22:40:22.371Z,5.59
2022-10-19T22:42:52.865Z,5.52
2022-10-19T22:45:23.375Z,5.47
2022-10-19T22:47:53.878Z,5.59
2022-10-19T22:50:24.430Z,5.65
2022-10-19T22:52:54.925Z,5.59
2022-10-19T22:55:28.207Z,5.52
2022-10-19T22:57:58.752Z,5.71
2022-10-19T23:00:29.571Z,5.72
2022-10-19T23:03:00.141Z,5.72
2022-10-19T23:05:30.696Z,5.81
2022-10-19T23:08:01.261Z,5.98
2022-10-19T23:10:34.407Z,6.18
2022-10-19T23:13:04.879Z,6.28
2022-10-19T23:15:35.407Z,6.48
2022-10-19T23:18:05.970Z,6.70
2022-10-19T23:20:36.513Z,6.97
2022-10-19T23:23:07.096Z,7.16
2022-10-19T23:25:40.198Z,7.18
2022-10-19T23:28:10.695Z,7.30
2022-10-19T23:30:41.205Z,7.40
2022-10-19T23:33:11.750Z,7.56
2022-10-19T23:35:42.212Z,7.68
2022-10-19T23:38:12.669Z,7.86
2022-10-19T23:40:46.079Z,8.10
2022-10-19T23:43:16.590Z,8.29
2022-10-19T23:45:48.685Z,8.56
2022-10-19T23:48:19.171Z,8.77
2022-10-19T23:50:49.659Z,8.95
2022-10-19T23:53:20.154Z,9.11
2022-10-19T23:55:53.341Z,9.29
2022-10-19T23:58:23.834Z,9.37
